Time;durP1;ratioP1;P1;durP2;ratioP2;P2;SDS_P1;SDS_P2;PMS_P1;PMS_P2;Temp;Humidity;BMP_temperature;BMP_pressure;BME280_temperature;BME280_humidity;BME280_pressure;Samples;Min_cycle;Max_cycle;Signal;HPM_P1;HPM_P2
2021/12/07 00:01:10;;;;;;;38.02;22.07;;;;;;;-1.67;81.00;100291.55;3497380;80;21167;-75
2021/12/07 00:06:03;;;;;;;38.65;22.20;;;;;;;-1.71;80.92;100300.21;3535444;79;20920;-76
2021/12/07 00:10:54;;;;;;;37.63;20.55;;;;;;;-1.76;80.72;100310.99;3501291;80;20943;-75
2021/12/07 00:15:47;;;;;;;34.33;20.60;;;;;;;-1.79;80.74;100309.56;3510367;81;20888;-75
2021/12/07 00:20:38;;;;;;;32.98;19.02;;;;;;;-1.81;80.76;100305.14;3424261;81;20998;-76
2021/12/07 00:25:31;;;;;;;27.40;16.82;;;;;;;-1.84;80.61;100312.22;3460496;81;20983;-75
2021/12/07 00:30:28;;;;;;;25.00;15.65;;;;;;;-1.85;80.51;100307.03;3398699;81;20955;-76
2021/12/07 00:35:33;;;;;;;29.90;16.75;;;;;;;-1.90;80.35;100322.43;3483417;79;20924;-76
2021/12/07 00:40:15;;;;;;;30.00;16.12;;;;;;;-1.96;80.23;100326.36;3546636;79;20994;-75
2021/12/07 00:45:08;;;;;;;28.67;16.73;;;;;;;-1.98;80.50;100340.68;3470302;79;21436;-76
2021/12/07 00:50:00;;;;;;;28.45;16.30;;;;;;;-1.97;80.58;100346.28;3521489;79;21205;-75
2021/12/07 00:54:51;;;;;;;23.62;14.18;;;;;;;-1.99;80.36;100364.39;3578746;79;21429;-76
2021/12/07 00:59:43;;;;;;;23.12;14.65;;;;;;;-2.02;80.26;100368.41;3535210;79;21012;-76
2021/12/07 01:04:34;;;;;;;24.85;13.93;;;;;;;-2.08;80.23;100381.66;3540983;79;20917;-76
2021/12/07 01:09:38;;;;;;;19.77;12.75;;;;;;;-2.09;80.18;100376.47;3524256;79;21449;-76
2021/12/07 01:24:44;;;;;;;28.32;15.53;;;;;;;-2.04;80.37;100359.44;3531673;79;20999;-76
2021/12/07 01:29:36;;;;;;;24.47;14.33;;;;;;;-2.05;80.19;100364.02;3528318;79;21002;-76
2021/12/07 01:44:50;;;;;;;25.85;15.13;;;;;;;-1.98;80.34;100357.24;3535143;79;20964;-75
2021/12/07 01:50:04;;;;;;;28.75;15.00;;;;;;;-2.03;79.93;100358.63;3515438;79;20952;-76
2021/12/07 01:59:42;;;;;;;24.92;13.83;;;;;;;-2.08;80.28;100344.72;3536980;79;21413;-77
2021/12/07 02:04:36;;;;;;;25.02;14.23;;;;;;;-2.12;80.05;100346.59;3486869;79;21172;-77
2021/12/07 02:09:27;;;;;;;27.62;14.60;;;;;;;-2.15;80.22;100359.14;3547870;79;21560;-75
2021/12/07 02:14:19;;;;;;;32.88;17.32;;;;;;;-2.14;80.27;100359.64;3533874;79;20960;-76
2021/12/07 02:19:12;;;;;;;32.75;16.35;;;;;;;-2.12;80.28;100355.11;3563641;79;20956;-76
2021/12/07 02:24:04;;;;;;;29.18;15.80;;;;;;;-2.13;80.15;100361.02;3571195;79;20955;-76
2021/12/07 02:28:57;;;;;;;27.75;16.45;;;;;;;-2.15;80.14;100364.23;3504473;79;23172;-76
2021/12/07 02:33:49;;;;;;;30.65;16.00;;;;;;;-2.15;80.38;100349.82;3525227;79;20924;-75
2021/12/07 02:38:41;;;;;;;30.70;16.30;;;;;;;-2.09;80.51;100350.62;3500804;79;21499;-76
2021/12/07 02:43:34;;;;;;;27.48;15.43;;;;;;;-2.08;80.34;100353.63;3540144;79;21006;-76
2021/12/07 02:48:25;;;;;;;31.60;16.35;;;;;;;-2.08;80.47;100356.59;3551501;79;20983;-76
2021/12/07 02:53:24;;;;;;;34.35;18.23;;;;;;;-2.07;80.38;100355.41;3501073;79;21184;-76
2021/12/07 02:58:15;;;;;;;33.18;18.62;;;;;;;-2.05;80.36;100348.73;3547393;79;20912;-76
2021/12/07 03:03:10;;;;;;;32.95;19.48;;;;;;;-2.08;80.32;100345.13;3538936;79;21461;-76
2021/12/07 03:28:30;;;;;;;30.97;16.57;;;;;;;-2.16;80.26;100350.62;3549068;79;21090;-76
2021/12/07 03:33:22;;;;;;;35.95;19.10;;;;;;;-2.17;80.46;100347.98;3504566;78;21440;-76
2021/12/07 03:38:15;;;;;;;34.38;17.85;;;;;;;-2.19;80.42;100340.23;3499924;80;22191;-77
2021/12/07 03:43:07;;;;;;;35.00;18.40;;;;;;;-2.20;80.36;100342.31;3496427;80;23854;-76
2021/12/07 03:48:03;;;;;;;33.88;18.32;;;;;;;-2.23;80.47;100335.75;3515697;80;21453;-76
2021/12/07 03:52:54;;;;;;;31.45;17.23;;;;;;;-2.20;80.50;100339.77;3454516;81;20960;-76
2021/12/07 03:57:46;;;;;;;31.60;17.20;;;;;;;-2.24;80.23;100350.94;3520324;79;20936;-76
2021/12/07 04:02:40;;;;;;;30.23;15.90;;;;;;;-2.23;80.40;100366.72;3469821;79;20960;-76
2021/12/07 04:07:33;;;;;;;31.73;15.98;;;;;;;-2.25;80.24;100368.26;3456584;80;40156;-76
2021/12/07 04:12:25;;;;;;;30.65;18.55;;;;;;;-2.25;80.28;100363.16;3496030;80;21078;-77
2021/12/07 04:17:18;;;;;;;30.92;15.40;;;;;;;-2.21;80.41;100372.78;3509303;80;20972;-76
2021/12/07 04:22:10;;;;;;;30.75;15.05;;;;;;;-2.21;80.26;100370.23;3489409;80;20964;-77
2021/12/07 04:27:01;;;;;;;26.93;15.08;;;;;;;-2.27;80.12;100373.66;3489913;80;21002;-76
2021/12/07 04:31:52;;;;;;;29.23;14.38;;;;;;;-2.26;80.22;100367.79;3459691;81;22137;-75
2021/12/07 04:36:43;;;;;;;27.35;15.55;;;;;;;-2.26;80.09;100372.88;3477724;79;20916;-76
2021/12/07 04:41:35;;;;;;;23.22;13.80;;;;;;;-2.25;80.13;100368.26;3461437;79;20947;-76
2021/12/07 04:46:39;;;;;;;19.42;12.30;;;;;;;-2.29;79.94;100379.92;3576661;79;20943;-76
2021/12/07 05:01:44;;;;;;;19.42;11.78;;;;;;;-2.38;79.69;100412.08;3504901;79;20971;-77
2021/12/07 05:06:41;;;;;;;23.80;12.37;;;;;;;-2.36;79.73;100413.05;3497335;79;20968;-77
2021/12/07 05:11:48;;;;;;;19.85;11.55;;;;;;;-2.32;79.66;100421.77;3513962;79;20940;-75
2021/12/07 05:42:04;;;;;;;23.50;13.38;;;;;;;-2.31;79.43;100424.42;3523944;79;20956;-76
2021/12/07 05:46:55;;;;;;;24.00;13.40;;;;;;;-2.32;79.55;100426.86;3516535;79;22099;-76
2021/12/07 05:51:47;;;;;;;22.82;12.58;;;;;;;-2.32;79.45;100428.13;3530424;79;21334;-77
2021/12/07 05:56:39;;;;;;;22.98;13.38;;;;;;;-2.38;79.30;100417.17;3579756;79;20956;-77
2021/12/07 06:01:30;;;;;;;24.37;13.45;;;;;;;-2.37;79.32;100420.59;3515596;79;20987;-76
2021/12/07 06:06:22;;;;;;;24.18;14.30;;;;;;;-2.42;79.43;100420.28;3560352;79;21382;-77
2021/12/07 06:11:13;;;;;;;24.37;13.65;;;;;;;-2.41;79.34;100423.33;3550965;79;21516;-76
2021/12/07 06:16:07;;;;;;;25.08;13.98;;;;;;;-2.42;79.33;100427.92;3524939;79;21007;-76
2021/12/07 06:20:58;;;;;;;25.05;13.65;;;;;;;-2.42;79.41;100422.83;3536183;79;20932;-76
2021/12/07 06:25:49;;;;;;;28.25;15.75;;;;;;;-2.42;79.43;100429.20;3552433;79;20909;-77
2021/12/07 06:30:43;;;;;;;24.82;14.80;;;;;;;-2.39;79.38;100424.70;3531629;79;21633;-77
2021/12/07 06:35:34;;;;;;;27.48;15.28;;;;;;;-2.38;79.44;100431.17;3506112;79;20963;-77
2021/12/07 06:40:25;;;;;;;27.17;15.80;;;;;;;-2.42;79.25;100434.69;3566888;79;21015;-76
2021/12/07 06:45:17;;;;;;;26.93;14.60;;;;;;;-2.44;79.26;100444.77;3505144;79;21004;-76
2021/12/07 06:50:11;;;;;;;34.05;17.90;;;;;;;-2.46;79.15;100445.47;3516582;79;20881;-76
2021/12/07 06:55:05;;;;;;;30.95;17.42;;;;;;;-2.49;79.22;100451.22;3509752;79;20939;-77
2021/12/07 06:59:56;;;;;;;30.97;16.95;;;;;;;-2.50;79.20;100457.12;3543821;79;21011;-76
2021/12/07 07:04:48;;;;;;;32.55;16.75;;;;;;;-2.54;79.17;100466.22;3491366;79;22263;-76
2021/12/07 07:09:39;;;;;;;34.55;18.20;;;;;;;-2.51;79.44;100455.34;3553705;79;20951;-76
2021/12/07 07:14:30;;;;;;;37.08;18.07;;;;;;;-2.47;79.37;100467.48;3485669;79;20999;-77
2021/12/07 07:19:24;;;;;;;33.15;17.70;;;;;;;-2.50;79.14;100474.53;3547778;79;21003;-76
2021/12/07 07:24:14;;;;;;;33.55;17.37;;;;;;;-2.47;79.31;100472.97;3568277;79;21445;-77
2021/12/07 07:29:05;;;;;;;36.33;18.98;;;;;;;-2.39;79.34;100477.78;3539358;79;20968;-75
2021/12/07 07:33:57;;;;;;;38.08;20.77;;;;;;;-2.37;79.23;100475.34;3490377;79;21056;-76
2021/12/07 07:38:49;;;;;;;33.95;17.60;;;;;;;-2.33;79.14;100479.44;3487514;79;21445;-75
2021/12/07 07:43:41;;;;;;;36.28;18.98;;;;;;;-2.31;79.21;100481.72;3538006;79;20915;-76
2021/12/07 07:48:37;;;;;;;30.97;17.42;;;;;;;-2.26;79.13;100492.19;3568716;79;21535;-75
2021/12/07 07:53:28;;;;;;;32.10;17.77;;;;;;;-2.23;78.96;100496.21;3525472;78;20979;-76
2021/12/07 07:58:21;;;;;;;33.70;17.50;;;;;;;-2.22;78.87;100495.41;3561716;78;20956;-76
2021/12/07 08:03:13;;;;;;;35.78;19.37;;;;;;;-2.17;78.88;100495.72;3537007;79;20962;-75
2021/12/07 08:08:05;;;;;;;29.40;16.57;;;;;;;-2.13;78.84;100492.58;3539697;79;20980;-76
2021/12/07 08:13:03;;;;;;;32.53;18.57;;;;;;;-2.15;78.42;100499.23;3492766;78;22211;-75
2021/12/07 08:17:56;;;;;;;28.75;16.20;;;;;;;-2.14;78.64;100497.20;3549831;78;20990;-75
2021/12/07 08:22:49;;;;;;;31.15;16.25;;;;;;;-2.08;78.60;100498.84;3565235;79;20963;-76
2021/12/07 08:27:41;;;;;;;39.33;17.32;;;;;;;-2.05;78.41;100500.33;3519001;78;21504;-76
2021/12/07 08:32:32;;;;;;;27.93;14.75;;;;;;;-2.08;78.43;100516.69;3523713;78;20911;-76
2021/12/07 08:37:23;;;;;;;24.92;14.30;;;;;;;-2.08;78.15;100521.78;3561555;79;21170;-75
2021/12/07 08:42:15;;;;;;;20.55;12.30;;;;;;;-2.07;78.27;100532.47;3552401;79;20964;-74
2021/12/07 08:47:07;;;;;;;22.82;13.22;;;;;;;-2.04;78.06;100526.31;3544585;79;21011;-75
2021/12/07 08:51:59;;;;;;;20.30;11.53;;;;;;;-2.04;77.49;100533.95;3515369;79;20983;-77
2021/12/07 09:02:00;;;;;;;22.73;13.38;;;;;;;-1.96;77.45;100528.94;3546957;78;21940;-75
2021/12/07 09:06:51;;;;;;;20.20;12.55;;;;;;;-1.93;77.47;100530.42;3547388;78;20968;-74
2021/12/07 09:11:44;;;;;;;21.50;13.22;;;;;;;-1.90;77.42;100541.59;3519946;79;21462;-78
2021/12/07 09:16:36;;;;;;;22.67;14.00;;;;;;;-1.87;77.16;100536.69;3550231;78;20936;-73
2021/12/07 09:21:28;;;;;;;21.33;12.58;;;;;;;-1.82;77.34;100534.05;3514125;79;21093;-71
2021/12/07 09:26:19;;;;;;;19.05;12.00;;;;;;;-1.75;77.18;100524.73;3536131;79;21152;-70
2021/12/07 09:31:10;;;;;;;19.85;11.95;;;;;;;-1.71;77.14;100536.88;3492698;78;20990;-71
2021/12/07 09:36:05;;;;;;;17.62;10.55;;;;;;;-1.70;76.77;100532.25;3571670;78;21572;-72
2021/12/07 09:40:56;;;;;;;22.17;12.65;;;;;;;-1.65;76.97;100532.15;3541887;79;21525;-72
2021/12/07 09:45:49;;;;;;;27.98;15.43;;;;;;;-1.64;76.69;100525.00;3604185;78;20936;-73
2021/12/07 09:50:45;;;;;;;25.88;13.18;;;;;;;-1.63;76.57;100515.27;3545984;79;21995;-73
2021/12/07 09:55:40;;;;;;;28.05;15.68;;;;;;;-1.64;76.62;100510.98;3566861;79;20924;-72
2021/12/07 10:00:33;;;;;;;22.90;12.98;;;;;;;-1.65;76.90;100513.43;3527362;79;21513;-74
2021/12/07 10:05:29;;;;;;;21.95;12.80;;;;;;;-1.55;76.57;100520.47;3519528;79;21400;-73
2021/12/07 10:10:29;;;;;;;21.97;14.85;;;;;;;-1.47;76.58;100506.04;3506232;79;20959;-71
2021/12/07 10:15:21;;;;;;;21.30;13.13;;;;;;;-1.40;76.57;100508.18;3525402;79;21078;-75
2021/12/07 10:20:39;;;;;;;21.97;12.90;;;;;;;-1.38;76.41;100516.80;3501759;79;20967;-72
2021/12/07 10:25:27;;;;;;;20.00;13.15;;;;;;;-1.41;76.47;100513.69;3545168;79;20948;-71
2021/12/07 10:30:22;;;;;;;21.02;12.47;;;;;;;-1.42;76.45;100513.58;3524627;79;20960;-71
2021/12/07 10:35:35;;;;;;;17.23;11.57;;;;;;;-1.38;76.39;100507.87;3515930;79;21017;-72
2021/12/07 10:40:26;;;;;;;16.90;11.15;;;;;;;-1.31;76.27;100501.08;3519705;79;22077;-71
2021/12/07 10:45:18;;;;;;;16.55;10.40;;;;;;;-1.23;76.02;100509.23;3532001;79;21011;-74
2021/12/07 10:50:13;;;;;;;17.87;10.10;;;;;;;-1.25;75.67;100504.03;3543189;79;21473;-73
2021/12/07 10:55:26;;;;;;;17.40;11.78;;;;;;;-1.29;75.83;100510.98;3538105;79;20912;-74
2021/12/07 11:00:36;;;;;;;19.52;11.63;;;;;;;-1.28;75.97;100503.83;3529439;79;20928;-74
2021/12/07 11:05:31;;;;;;;19.30;11.57;;;;;;;-1.13;75.97;100494.06;3531066;79;21023;-74
2021/12/07 11:10:30;;;;;;;18.20;10.80;;;;;;;-1.11;75.75;100493.76;3533393;79;20949;-73
2021/12/07 11:15:26;;;;;;;14.93;10.80;;;;;;;-1.09;75.78;100500.73;3551968;79;20952;-74
2021/12/07 11:20:15;;;;;;;16.75;9.50;;;;;;;-1.13;75.64;100514.08;3549485;79;21003;-73
2021/12/07 11:25:08;;;;;;;16.12;10.43;;;;;;;-1.15;75.40;100517.80;3550866;79;21011;-74
2021/12/07 11:30:11;;;;;;;21.40;11.05;;;;;;;-1.31;75.54;100524.04;3533353;79;21438;-71
2021/12/07 11:35:13;;;;;;;17.95;10.48;;;;;;;-1.29;75.40;100519.91;3517712;79;21453;-74
2021/12/07 11:40:08;;;;;;;15.53;9.60;;;;;;;-1.38;75.39;100519.35;3541080;79;20967;-73
2021/12/07 11:45:15;;;;;;;17.15;10.10;;;;;;;-1.32;75.73;100525.22;3534313;79;20963;-73
2021/12/07 11:50:21;;;;;;;15.13;9.73;;;;;;;-1.33;75.65;100524.34;3568133;79;20951;-73
2021/12/07 11:55:14;;;;;;;19.52;10.48;;;;;;;-1.39;75.43;100531.64;3563174;78;22503;-73
2021/12/07 12:00:11;;;;;;;29.90;15.08;;;;;;;-1.43;75.43;100533.48;3485208;79;20955;-74
2021/12/07 12:05:04;;;;;;;18.42;11.10;;;;;;;-1.40;76.06;100538.78;3551632;79;20990;-74
2021/12/07 12:09:56;;;;;;;15.13;9.83;;;;;;;-1.35;75.92;100543.78;3581251;79;20960;-72
2021/12/07 12:15:16;;;;;;;15.53;9.45;;;;;;;-1.35;75.74;100547.61;3509466;79;20934;-74
2021/12/07 12:20:56;;;;;;;16.73;10.93;;;;;;;-1.38;75.67;100542.30;3566055;79;21164;-73
2021/12/07 12:26:05;;;;;;;14.93;8.93;;;;;;;-1.47;75.57;100551.94;3568936;79;20935;-73
2021/12/07 12:30:56;;;;;;;18.15;10.28;;;;;;;-1.52;75.65;100558.42;3568002;79;21444;-72
2021/12/07 12:35:54;;;;;;;17.40;9.73;;;;;;;-1.63;75.66;100559.89;3555251;79;20955;-74
2021/12/07 12:41:00;;;;;;;18.62;10.28;;;;;;;-1.68;75.63;100553.65;3520667;79;21497;-70
2021/12/07 12:45:54;;;;;;;14.05;9.30;;;;;;;-1.66;75.79;100549.52;3542021;79;22095;-76
2021/12/07 12:50:51;;;;;;;13.08;8.60;;;;;;;-1.67;75.84;100554.12;3510282;79;21584;-76
2021/12/07 12:55:50;;;;;;;15.75;10.45;;;;;;;-1.73;75.82;100552.47;3563299;79;21493;-74
2021/12/07 13:01:10;;;;;;;16.23;10.43;;;;;;;-1.74;75.92;100560.89;3535560;78;21078;-73
2021/12/07 13:06:01;;;;;;;12.75;8.45;;;;;;;-1.78;75.83;100557.66;3562025;79;20947;-78
2021/12/07 13:11:03;;;;;;;15.63;9.68;;;;;;;-1.82;75.82;100563.36;3515369;79;21427;-73
2021/12/07 13:15:56;;;;;;;17.45;10.23;;;;;;;-1.97;75.67;100569.23;3586094;79;21465;-73
2021/12/07 13:20:50;;;;;;;13.88;9.33;;;;;;;-1.97;76.09;100579.43;3534202;79;20923;-72
2021/12/07 13:25:45;;;;;;;13.93;9.00;;;;;;;-2.05;75.82;100586.95;3521794;79;20935;-76
2021/12/07 13:31:00;;;;;;;12.80;8.68;;;;;;;-2.12;75.95;100587.34;3566950;79;23675;-77
2021/12/07 13:35:53;;;;;;;12.95;8.80;;;;;;;-2.15;75.89;100579.48;3565834;78;21239;-75
2021/12/07 13:40:44;;;;;;;12.30;7.67;;;;;;;-2.24;75.89;100573.79;3535641;79;20925;-75
2021/12/07 13:45:36;;;;;;;13.62;8.88;;;;;;;-2.27;76.13;100579.95;3534455;79;20943;-76
2021/12/07 13:50:29;;;;;;;15.15;8.85;;;;;;;-2.31;76.13;100587.77;3527550;79;20995;-76
2021/12/07 13:55:27;;;;;;;13.65;8.60;;;;;;;-2.32;76.19;100602.18;3507203;79;21517;-76
2021/12/07 14:00:27;;;;;;;15.63;10.50;;;;;;;-2.31;76.31;100597.59;3506038;79;21194;-75
2021/12/07 14:05:26;;;;;;;14.50;8.63;;;;;;;-2.37;76.17;100599.72;3552997;79;20925;-75
2021/12/07 14:10:25;;;;;;;13.00;8.25;;;;;;;-2.41;76.00;100610.48;3550943;79;21004;-76
2021/12/07 14:15:24;;;;;;;11.45;7.67;;;;;;;-2.44;76.22;100607.72;3525808;79;21170;-75
2021/12/07 14:20:45;;;;;;;13.10;7.90;;;;;;;-2.48;75.88;100598.52;3549720;79;20947;-75
2021/12/07 14:25:57;;;;;;;13.08;7.58;;;;;;;-2.52;76.18;100601.25;3508533;79;20967;-76
2021/12/07 14:30:49;;;;;;;14.40;8.93;;;;;;;-2.56;75.92;100606.89;3533318;79;20960;-74
2021/12/07 14:35:40;;;;;;;12.82;8.00;;;;;;;-2.61;76.16;100611.69;3545889;79;21505;-75
2021/12/07 14:40:31;;;;;;;12.05;7.97;;;;;;;-2.61;75.97;100605.70;3505846;79;20975;-76
2021/12/07 14:45:22;;;;;;;12.80;7.80;;;;;;;-2.62;75.89;100611.19;3510078;79;20940;-76
2021/12/07 14:50:13;;;;;;;12.55;8.25;;;;;;;-2.62;75.97;100624.31;3481799;79;21100;-76
2021/12/07 14:55:06;;;;;;;14.65;8.93;;;;;;;-2.62;75.89;100626.86;3482393;81;22098;-76
2021/12/07 15:00:00;;;;;;;8.55;5.53;;;;;;;-2.63;75.80;100630.17;3503261;80;21480;-75
2021/12/07 15:04:58;;;;;;;8.65;5.33;;;;;;;-2.67;75.37;100621.84;3512328;79;20985;-75
2021/12/07 15:09:49;;;;;;;9.60;6.25;;;;;;;-2.65;75.04;100625.37;3491583;79;21472;-74
2021/12/07 15:14:41;;;;;;;12.45;7.42;;;;;;;-2.73;75.16;100618.09;3483213;79;21036;-76
2021/12/07 15:19:33;;;;;;;9.73;6.70;;;;;;;-2.71;75.28;100613.11;3530104;78;20984;-75
2021/12/07 15:24:28;;;;;;;9.45;5.55;;;;;;;-2.74;75.00;100616.31;3508457;79;21046;-76
2021/12/07 15:29:24;;;;;;;8.50;5.80;;;;;;;-2.75;74.73;100614.96;3555931;78;21254;-75
2021/12/07 15:34:19;;;;;;;6.67;4.87;;;;;;;-2.77;74.98;100622.48;3480220;80;20940;-73
2021/12/07 15:39:18;;;;;;;8.13;5.55;;;;;;;-2.77;75.03;100618.67;3512071;78;23484;-76
2021/12/07 15:44:10;;;;;;;6.58;5.17;;;;;;;-2.80;74.63;100625.21;3631300;78;21457;-76
2021/12/07 15:49:01;;;;;;;9.10;6.53;;;;;;;-2.86;74.53;100626.95;3570563;78;21599;-76
2021/12/07 15:53:56;;;;;;;11.83;7.75;;;;;;;-2.94;74.63;100626.80;3553137;78;20999;-75
2021/12/07 15:58:48;;;;;;;12.60;8.08;;;;;;;-2.99;74.93;100628.13;3591042;78;20912;-75
2021/12/07 16:03:46;;;;;;;9.85;6.65;;;;;;;-2.97;75.14;100621.48;3583746;77;21815;-74
2021/12/07 16:08:38;;;;;;;10.95;8.10;;;;;;;-2.95;75.11;100621.20;3603465;78;20909;-75
2021/12/07 16:13:33;;;;;;;14.33;7.60;;;;;;;-2.97;75.01;100625.30;3610299;78;21194;-75
2021/12/07 16:18:27;;;;;;;12.18;8.80;;;;;;;-2.99;75.16;100626.86;3557795;77;21506;-75
2021/12/07 16:23:18;;;;;;;11.05;7.72;;;;;;;-2.97;75.18;100643.11;3618562;77;20896;-75
2021/12/07 16:28:10;;;;;;;11.53;8.23;;;;;;;-3.04;74.84;100652.36;3600575;78;21441;-75
2021/12/07 16:33:01;;;;;;;13.70;8.35;;;;;;;-3.06;75.07;100652.25;3525901;78;20999;-74
2021/12/07 16:37:53;;;;;;;13.65;8.00;;;;;;;-3.06;75.05;100663.69;3510175;79;21191;-75
2021/12/07 16:42:47;;;;;;;13.35;8.20;;;;;;;-3.04;75.17;100663.80;3579816;79;21539;-74
2021/12/07 16:47:38;;;;;;;14.70;8.80;;;;;;;-3.08;74.72;100661.07;3588966;79;20924;-75
2021/12/07 16:52:30;;;;;;;12.25;7.47;;;;;;;-3.11;75.00;100663.39;3582991;78;21120;-76
2021/12/07 16:57:21;;;;;;;16.70;8.73;;;;;;;-3.08;74.95;100663.61;3513495;79;20959;-75
2021/12/07 17:02:12;;;;;;;12.58;8.73;;;;;;;-3.07;74.84;100657.73;3580950;79;20972;-75
2021/12/07 17:07:06;;;;;;;18.98;11.88;;;;;;;-3.13;74.60;100658.59;3585419;78;22092;-75
2021/12/07 17:11:57;;;;;;;10.95;7.28;;;;;;;-3.16;74.78;100663.84;3603518;79;20952;-75
2021/12/07 17:16:49;;;;;;;11.88;8.78;;;;;;;-3.11;74.87;100669.75;3552300;78;21441;-75
2021/12/07 17:21:40;;;;;;;16.37;11.15;;;;;;;-3.09;74.66;100677.09;3517710;79;21029;-75
2021/12/07 17:26:31;;;;;;;12.65;8.10;;;;;;;-3.12;74.25;100686.17;3573153;79;20997;-75
2021/12/07 17:31:22;;;;;;;10.45;7.40;;;;;;;-3.18;74.12;100676.45;3561453;79;21292;-75
2021/12/07 17:36:13;;;;;;;12.88;9.55;;;;;;;-3.23;73.85;100683.26;3568096;79;20964;-75
2021/12/07 17:41:04;;;;;;;13.70;6.78;;;;;;;-3.30;73.83;100678.11;3590062;79;21445;-75
2021/12/07 17:45:56;;;;;;;9.55;5.70;;;;;;;-3.36;73.83;100671.30;3553534;79;20933;-75
2021/12/07 17:50:47;;;;;;;12.00;6.20;;;;;;;-3.39;73.60;100673.25;3569444;79;20892;-75
2021/12/07 17:55:44;;;;;;;8.33;5.47;;;;;;;-3.40;73.86;100676.55;3513115;79;21399;-75
2021/12/07 18:00:38;;;;;;;8.28;5.67;;;;;;;-3.37;73.61;100684.80;3525778;79;21086;-75
2021/12/07 18:05:30;;;;;;;18.92;10.60;;;;;;;-3.45;73.57;100694.03;3536771;79;22036;-75
2021/12/07 18:10:24;;;;;;;11.83;6.85;;;;;;;-3.49;73.24;100694.59;3532635;79;21015;-76
2021/12/07 18:15:20;;;;;;;14.23;8.70;;;;;;;-3.56;73.23;100701.27;3492971;79;21470;-74
2021/12/07 18:20:15;;;;;;;17.12;10.18;;;;;;;-3.59;73.15;100703.98;3515701;79;20965;-76
2021/12/07 18:25:10;;;;;;;10.85;6.65;;;;;;;-3.60;73.58;100700.53;3527724;79;20939;-75
2021/12/07 18:30:13;;;;;;;12.18;6.85;;;;;;;-3.55;73.47;100696.67;3563642;78;20931;-76
2021/12/07 18:35:07;;;;;;;11.30;7.42;;;;;;;-3.61;73.20;100693.70;3512849;79;20963;-76
2021/12/07 18:39:58;;;;;;;11.35;8.15;;;;;;;-3.62;73.51;100693.19;3578006;77;20924;-75
2021/12/07 18:44:49;;;;;;;13.00;8.00;;;;;;;-3.55;73.56;100696.67;3555946;79;20969;-76
2021/12/07 18:49:41;;;;;;;15.18;8.90;;;;;;;-3.52;73.68;100699.45;3549395;78;20920;-76
2021/12/07 18:54:32;;;;;;;15.43;9.75;;;;;;;-3.48;73.55;100703.97;3547912;78;21158;-76
2021/12/07 18:59:23;;;;;;;19.52;10.93;;;;;;;-3.46;73.31;100703.69;3564279;78;20943;-76
2021/12/07 19:04:14;;;;;;;18.10;10.88;;;;;;;-3.50;73.71;100707.19;3556010;79;21280;-76
2021/12/07 19:09:08;;;;;;;17.92;11.30;;;;;;;-3.52;73.61;100705.80;3552695;78;21536;-75
2021/12/07 19:13:58;;;;;;;19.70;11.18;;;;;;;-3.59;73.44;100709.94;3554852;78;20981;-76
2021/12/07 19:18:50;;;;;;;22.15;11.88;;;;;;;-3.66;73.54;100707.72;3479490;78;20986;-76
2021/12/07 19:23:42;;;;;;;17.65;10.20;;;;;;;-3.67;73.60;100703.39;3566034;78;20976;-75
2021/12/07 19:28:34;;;;;;;13.90;8.00;;;;;;;-3.76;73.35;100706.53;3563778;78;20980;-75
2021/12/07 19:33:25;;;;;;;16.60;9.93;;;;;;;-3.85;73.27;100696.17;3582857;78;20940;-75
2021/12/07 19:38:20;;;;;;;18.07;9.75;;;;;;;-3.93;73.39;100696.41;3542711;78;20972;-76
2021/12/07 19:43:13;;;;;;;19.70;12.05;;;;;;;-4.00;73.26;100700.53;3586639;78;21944;-75
2021/12/07 19:48:05;;;;;;;16.10;10.38;;;;;;;-4.08;73.55;100702.48;3590169;78;21003;-76
2021/12/07 19:52:57;;;;;;;17.52;10.18;;;;;;;-4.07;73.55;100700.45;3581456;79;21169;-76
2021/12/07 19:57:52;;;;;;;19.05;11.73;;;;;;;-4.08;73.75;100699.94;3501656;79;20967;-76
2021/12/07 20:02:43;;;;;;;16.45;10.18;;;;;;;-4.03;73.91;100694.82;3563319;79;20939;-75
2021/12/07 20:07:38;;;;;;;25.50;11.12;;;;;;;-3.98;73.94;100696.05;3549921;78;21161;-75
2021/12/07 20:12:29;;;;;;;18.02;10.63;;;;;;;-3.93;73.93;100698.95;3559752;79;21050;-75
2021/12/07 20:17:25;;;;;;;22.25;12.53;;;;;;;-3.92;73.98;100701.57;3568027;79;21249;-75
2021/12/07 20:22:14;;;;;;;20.43;12.70;;;;;;;-3.91;73.76;100703.75;3566770;79;21492;-75
2021/12/07 20:27:06;;;;;;;19.32;11.95;;;;;;;-3.94;73.93;100695.50;3584687;79;22168;-75
2021/12/07 20:31:58;;;;;;;19.75;12.43;;;;;;;-3.94;73.90;100701.85;3549617;79;21186;-75
2021/12/07 20:36:49;;;;;;;23.27;11.90;;;;;;;-4.01;73.88;100688.19;3578248;79;21429;-75
2021/12/07 20:41:42;;;;;;;22.40;12.45;;;;;;;-4.02;74.07;100697.87;3528769;79;20997;-75
2021/12/07 20:46:33;;;;;;;22.95;13.70;;;;;;;-4.01;74.23;100693.27;3568640;78;21011;-75
2021/12/07 20:51:24;;;;;;;21.37;12.18;;;;;;;-4.07;73.97;100701.72;3558345;78;21416;-75
2021/12/07 20:56:17;;;;;;;20.60;12.07;;;;;;;-4.17;74.19;100701.78;3530115;78;22250;-75
2021/12/07 21:01:11;;;;;;;23.62;13.25;;;;;;;-4.16;74.25;100694.69;3516968;78;21033;-76
2021/12/07 21:06:03;;;;;;;23.30;12.95;;;;;;;-4.23;74.10;100694.20;3557759;79;20946;-75
2021/12/07 21:10:54;;;;;;;24.90;15.23;;;;;;;-4.31;74.21;100699.11;3578612;78;20940;-75
2021/12/07 21:15:51;;;;;;;21.40;13.98;;;;;;;-4.34;74.33;100704.33;3488675;78;21476;-74
2021/12/07 21:20:39;;;;;;;24.45;14.07;;;;;;;-4.37;74.39;100704.09;3511455;78;21011;-75
2021/12/07 21:25:30;;;;;;;27.73;15.05;;;;;;;-4.42;74.32;100715.15;3554204;78;21536;-75
2021/12/07 21:30:22;;;;;;;28.05;15.38;;;;;;;-4.46;74.64;100728.38;3479321;79;20958;-76
2021/12/07 21:35:13;;;;;;;28.90;15.13;;;;;;;-4.42;74.72;100711.34;3541809;80;20961;-75
2021/12/07 21:40:10;;;;;;;33.55;17.52;;;;;;;-4.41;74.65;100701.70;3505356;79;21095;-74
2021/12/07 21:45:02;;;;;;;31.05;15.60;;;;;;;-4.39;74.79;100712.86;3538934;78;21272;-75
2021/12/07 21:49:54;;;;;;;28.02;16.93;;;;;;;-4.41;74.63;100722.02;3542165;78;21024;-76
2021/12/07 21:54:47;;;;;;;28.67;16.32;;;;;;;-4.42;74.85;100724.03;3566012;78;21643;-75
2021/12/07 21:59:38;;;;;;;31.40;15.30;;;;;;;-4.45;74.68;100716.20;3551877;78;21526;-74
2021/12/07 22:04:30;;;;;;;29.77;16.93;;;;;;;-4.51;74.70;100704.30;3503120;78;21030;-75
2021/12/07 22:09:22;;;;;;;31.97;17.85;;;;;;;-4.53;74.99;100706.71;3556589;78;21106;-75
2021/12/07 22:14:13;;;;;;;30.20;16.00;;;;;;;-4.48;75.12;100710.49;3545470;78;20956;-75
2021/12/07 22:19:06;;;;;;;31.42;15.78;;;;;;;-4.50;74.97;100709.89;3555249;79;21462;-74
2021/12/07 22:23:57;;;;;;;34.98;19.10;;;;;;;-4.57;74.88;100708.52;3523803;79;21456;-75
2021/12/07 22:28:49;;;;;;;32.70;18.17;;;;;;;-4.60;75.08;100713.35;3563484;79;21885;-74
2021/12/07 22:33:40;;;;;;;29.50;16.32;;;;;;;-4.56;75.03;100710.67;3543098;78;21854;-74
2021/12/07 22:38:32;;;;;;;34.38;18.20;;;;;;;-4.60;75.11;100711.72;3549990;78;21335;-74
2021/12/07 22:43:23;;;;;;;33.88;18.35;;;;;;;-4.64;75.01;100702.08;3533982;78;20928;-74
2021/12/07 22:48:16;;;;;;;32.30;17.30;;;;;;;-4.65;75.26;100700.33;3563577;78;20943;-73
2021/12/07 22:53:09;;;;;;;31.68;16.48;;;;;;;-4.58;75.44;100689.37;3529800;78;21425;-74
2021/12/07 22:58:00;;;;;;;30.80;18.00;;;;;;;-4.60;75.19;100690.52;3539245;78;21476;-74
2021/12/07 23:02:57;;;;;;;26.80;16.30;;;;;;;-4.64;75.16;100693.20;3574334;77;20911;-74
2021/12/07 23:07:48;;;;;;;30.50;17.30;;;;;;;-4.71;75.11;100687.16;3594457;77;20914;-74
2021/12/07 23:12:40;;;;;;;34.60;17.75;;;;;;;-4.78;75.09;100684.91;3521003;77;20968;-74
2021/12/07 23:17:31;;;;;;;35.60;19.77;;;;;;;-4.86;75.20;100687.25;3605904;77;20883;-74
2021/12/07 23:22:22;;;;;;;29.63;16.57;;;;;;;-4.87;75.42;100681.66;3543171;78;27032;-73
2021/12/07 23:27:13;;;;;;;27.85;16.05;;;;;;;-4.87;75.36;100674.05;3536273;78;21290;-73
2021/12/07 23:32:06;;;;;;;30.85;17.05;;;;;;;-4.88;75.39;100685.86;3586957;77;20905;-74
2021/12/07 23:36:57;;;;;;;34.00;17.77;;;;;;;-4.90;75.25;100677.25;3570432;77;20978;-75
2021/12/07 23:41:48;;;;;;;32.05;17.95;;;;;;;-4.96;75.33;100669.55;3567662;77;21519;-75
2021/12/07 23:46:40;;;;;;;32.70;18.35;;;;;;;-4.94;75.58;100669.27;3584417;77;20979;-75